createdAt,value
2018-12-03T00:00:25.909Z,1.50
2018-12-03T00:02:31.004Z,1.40
2018-12-03T00:04:36.022Z,1.10
2018-12-03T00:06:40.889Z,0.87
2018-12-03T00:08:45.810Z,0.87
2018-12-03T00:10:50.747Z,0.80
2018-12-03T00:12:55.776Z,0.73
2018-12-03T00:15:00.550Z,0.63
2018-12-03T00:17:05.562Z,0.47
2018-12-03T00:19:10.864Z,0.60
2018-12-03T00:21:16.900Z,0.70
2018-12-03T00:23:23.416Z,0.87
2018-12-03T00:25:28.281Z,0.70
2018-12-03T00:27:33.046Z,0.50
2018-12-03T00:29:38.179Z,0.67
2018-12-03T00:31:43.134Z,0.60
2018-12-03T00:33:48.324Z,0.60
2018-12-03T00:35:53.965Z,0.57
2018-12-03T00:38:02.272Z,0.67
2018-12-03T00:40:08.327Z,0.80
2018-12-03T00:42:14.525Z,0.70
2018-12-03T00:44:19.520Z,0.87
2018-12-03T00:46:24.556Z,0.77
2018-12-03T00:48:31.191Z,0.60
2018-12-03T00:50:36.111Z,0.73
2018-12-03T00:52:40.937Z,0.60
2018-12-03T00:54:45.918Z,1.13
2018-12-03T00:56:51.474Z,0.67
2018-12-03T00:58:56.506Z,1.10
2018-12-03T01:01:01.608Z,0.80
2018-12-03T01:03:06.716Z,0.87
2018-12-03T01:05:12.594Z,1.40
2018-12-03T01:07:18.405Z,1.00
2018-12-03T01:09:24.718Z,1.30
2018-12-03T01:11:29.636Z,1.10
2018-12-03T01:13:35.471Z,1.20
2018-12-03T01:15:40.541Z,0.90
2018-12-03T01:17:45.377Z,1.03
2018-12-03T01:19:53.239Z,1.20
2018-12-03T01:21:58.805Z,0.93
2018-12-03T01:24:04.875Z,1.23
2018-12-03T01:26:09.960Z,1.20
2018-12-03T01:28:15.924Z,1.53
2018-12-03T01:30:20.797Z,1.50
2018-12-03T01:32:25.782Z,1.23
2018-12-03T01:34:30.906Z,1.13
2018-12-03T01:36:37.243Z,1.30
2018-12-03T01:38:42.265Z,1.50
2018-12-03T01:40:47.397Z,1.27
2018-12-03T01:42:53.143Z,1.60
2018-12-03T01:44:58.098Z,1.60
2018-12-03T01:47:03.036Z,1.50
2018-12-03T01:49:08.145Z,1.67
2018-12-03T01:51:14.773Z,1.20
2018-12-03T01:53:20.006Z,1.30
2018-12-03T01:55:26.182Z,1.57
2018-12-03T01:57:32.219Z,0.90
2018-12-03T01:59:38.745Z,1.93
2018-12-03T02:01:43.801Z,1.40
2018-12-03T02:03:48.796Z,1.47
2018-12-03T02:05:53.730Z,1.40
2018-12-03T02:07:58.787Z,1.13
2018-12-03T02:10:04.045Z,1.77
2018-12-03T02:12:09.232Z,1.37
2018-12-03T02:14:15.326Z,1.20
2018-12-03T02:16:20.347Z,1.07
2018-12-03T02:18:26.305Z,1.40
2018-12-03T02:20:31.226Z,1.43
2018-12-03T02:22:36.095Z,1.47
2018-12-03T02:24:41.476Z,1.20
2018-12-03T02:26:47.135Z,1.30
2018-12-03T02:28:53.188Z,1.70
2018-12-03T02:31:00.751Z,1.07
2018-12-03T02:33:06.143Z,1.10
2018-12-03T02:35:13.659Z,1.27
2018-12-03T02:37:21.544Z,0.97
2018-12-03T02:39:27.465Z,1.50
2018-12-03T02:41:32.576Z,1.13
2018-12-03T02:43:37.874Z,1.40
2018-12-03T02:45:42.760Z,1.20
2018-12-03T02:47:47.830Z,1.83
2018-12-03T02:49:54.439Z,1.40
2018-12-03T02:51:59.797Z,1.40
2018-12-03T02:54:06.826Z,1.23
2018-12-03T02:56:12.528Z,1.30
2018-12-03T02:58:19.598Z,1.20
2018-12-03T03:00:26.273Z,1.67
2018-12-03T03:02:31.348Z,1.03
2018-12-03T03:04:37.054Z,1.50
2018-12-03T03:06:42.150Z,1.60
2018-12-03T03:08:47.639Z,1.10
2018-12-03T03:10:52.596Z,1.20
2018-12-03T03:12:59.355Z,1.30
2018-12-03T03:15:06.520Z,2.00
2018-12-03T03:17:11.558Z,1.13
2018-12-03T03:19:16.549Z,1.13
2018-12-03T03:21:22.422Z,2.17
2018-12-03T03:23:28.316Z,1.73
2018-12-03T03:25:33.314Z,1.87
2018-12-03T03:27:38.549Z,2.70
2018-12-03T03:29:43.695Z,2.30
2018-12-03T03:31:48.861Z,1.60
2018-12-03T03:33:53.859Z,2.10
2018-12-03T03:35:59.103Z,2.77
2018-12-03T03:38:03.950Z,1.90
2018-12-03T03:40:17.560Z,2.00
2018-12-03T03:42:24.264Z,2.00
2018-12-03T03:44:29.534Z,2.10
2018-12-03T03:46:34.453Z,2.00
2018-12-03T03:48:40.398Z,1.53
2018-12-03T03:50:46.979Z,2.20
2018-12-03T03:52:51.906Z,1.90
2018-12-03T03:54:56.894Z,1.70
2018-12-03T03:57:03.135Z,1.77
2018-12-03T03:59:09.436Z,1.73
2018-12-03T04:01:16.031Z,1.73
2018-12-03T04:03:20.916Z,1.50
2018-12-03T04:05:26.610Z,1.90
2018-12-03T04:07:32.011Z,1.30
2018-12-03T04:09:37.525Z,1.70
2018-12-03T04:11:43.311Z,1.67
2018-12-03T04:13:48.787Z,1.30
2018-12-03T04:15:54.602Z,1.43
2018-12-03T04:18:00.139Z,0.90
2018-12-03T04:20:10.469Z,1.07
2018-12-03T04:22:15.576Z,1.30
2018-12-03T04:24:21.400Z,0.87
2018-12-03T04:26:27.123Z,1.40
2018-12-03T04:28:34.388Z,1.30
2018-12-03T04:30:39.467Z,0.80
2018-12-03T04:32:44.620Z,1.20
2018-12-03T04:34:49.523Z,1.10
2018-12-03T04:36:55.808Z,1.43
2018-12-03T04:39:00.818Z,0.93
2018-12-03T04:41:05.981Z,1.43
2018-12-03T04:43:12.895Z,1.13
2018-12-03T04:45:19.216Z,1.50
2018-12-03T04:47:24.320Z,1.37
2018-12-03T04:49:29.261Z,1.43
2018-12-03T04:51:34.278Z,1.00
2018-12-03T04:53:39.298Z,1.10
2018-12-03T04:55:44.262Z,1.53
2018-12-03T04:57:50.479Z,1.50
2018-12-03T04:59:55.789Z,1.07
2018-12-03T05:02:02.726Z,1.20
2018-12-03T05:04:08.042Z,1.03
2018-12-03T05:06:13.219Z,0.83
2018-12-03T05:08:18.167Z,1.40
2018-12-03T05:10:23.820Z,1.23
2018-12-03T05:12:28.641Z,1.20
2018-12-03T05:14:33.368Z,1.13
2018-12-03T05:16:38.288Z,0.80
2018-12-03T05:18:43.250Z,0.70
2018-12-03T05:20:48.102Z,0.80
2018-12-03T05:22:52.882Z,0.80
2018-12-03T05:24:57.913Z,0.80
2018-12-03T05:27:02.750Z,0.60
2018-12-03T05:29:07.779Z,1.00
2018-12-03T05:31:12.835Z,1.17
2018-12-03T05:33:17.759Z,0.80
2018-12-03T05:35:27.747Z,1.27
2018-12-03T05:37:32.827Z,1.17
2018-12-03T05:39:37.747Z,1.20
2018-12-03T05:41:42.520Z,1.00
2018-12-03T05:43:47.284Z,1.13
2018-12-03T05:45:55.986Z,1.10
2018-12-03T05:48:01.178Z,1.20
2018-12-03T05:52:32.273Z,0.80
2018-12-03T05:54:37.412Z,1.10
2018-12-03T05:56:42.397Z,1.10
2018-12-03T05:58:47.475Z,1.20
2018-12-03T06:00:52.633Z,1.13
2018-12-03T06:02:58.368Z,1.47
2018-12-03T06:05:07.421Z,0.70
2018-12-03T06:07:19.366Z,1.03
2018-12-03T06:09:25.757Z,1.20
2018-12-03T06:11:30.850Z,0.90
2018-12-03T06:13:37.654Z,1.20
2018-12-03T06:15:42.581Z,1.00
2018-12-03T06:19:58.587Z,0.93
2018-12-03T06:22:05.272Z,1.27
2018-12-03T06:24:10.586Z,1.30
2018-12-03T06:26:16.030Z,0.70
2018-12-03T06:28:21.071Z,1.30
2018-12-03T06:30:27.445Z,1.20
2018-12-03T06:32:32.596Z,0.87
2018-12-03T06:34:37.568Z,1.73
2018-12-03T06:36:43.440Z,1.20
2018-12-03T06:38:48.479Z,0.90
2018-12-03T06:40:54.335Z,0.90
2018-12-03T06:42:59.449Z,0.80
2018-12-03T06:45:04.361Z,0.70
2018-12-03T06:47:11.318Z,1.13
2018-12-03T06:49:16.659Z,0.97
2018-12-03T06:51:21.536Z,0.60
2018-12-03T06:53:26.379Z,1.60
2018-12-03T06:55:31.573Z,1.10
2018-12-03T06:57:36.529Z,1.20
2018-12-03T06:59:41.550Z,1.37
2018-12-03T07:01:46.410Z,0.80
2018-12-03T07:03:51.746Z,0.97
2018-12-03T07:05:56.715Z,0.73
2018-12-03T07:08:02.507Z,0.80
2018-12-03T07:10:16.710Z,0.90
2018-12-03T07:12:21.658Z,0.90
2018-12-03T07:14:27.134Z,0.80
2018-12-03T07:16:32.068Z,1.00
2018-12-03T07:18:37.347Z,1.20
2018-12-03T07:20:42.245Z,1.07
2018-12-03T07:22:47.408Z,1.17
2018-12-03T07:24:52.375Z,0.90
2018-12-03T07:26:57.521Z,1.13
2018-12-03T07:29:02.533Z,1.60
2018-12-03T07:31:09.583Z,1.10
2018-12-03T07:33:14.780Z,1.50
2018-12-03T07:35:21.585Z,1.97
2018-12-03T07:37:26.866Z,1.27
2018-12-03T07:39:33.814Z,2.00
2018-12-03T07:41:38.795Z,1.33
2018-12-03T07:43:46.556Z,2.30
2018-12-03T07:45:52.470Z,2.10
2018-12-03T07:47:58.542Z,2.00
2018-12-03T07:50:08.172Z,1.83
2018-12-03T07:52:16.520Z,1.17
2018-12-03T07:54:21.659Z,1.40
2018-12-03T07:56:26.705Z,1.67
2018-12-03T07:58:32.482Z,1.30
2018-12-03T08:00:43.294Z,1.70
2018-12-03T08:02:49.504Z,1.97
2018-12-03T08:04:56.049Z,1.77
2018-12-03T08:07:01.009Z,1.60
2018-12-03T08:09:08.830Z,1.73
2018-12-03T08:11:13.988Z,2.40
2018-12-03T08:13:20.078Z,1.93
2018-12-03T08:15:25.199Z,2.13
2018-12-03T08:17:31.228Z,1.83
2018-12-03T08:19:36.214Z,2.00
2018-12-03T08:21:41.230Z,1.57
2018-12-03T08:23:57.304Z,2.67
2018-12-03T08:26:02.787Z,1.57
2018-12-03T08:28:09.460Z,1.13
2018-12-03T08:30:14.979Z,2.03
2018-12-03T08:32:19.958Z,1.27
2018-12-03T08:34:25.087Z,2.03
2018-12-03T08:36:29.998Z,1.90
2018-12-03T08:38:35.042Z,2.10
2018-12-03T08:40:40.070Z,1.70
2018-12-03T08:42:50.038Z,1.70
2018-12-03T08:44:54.953Z,1.47
2018-12-03T08:47:08.117Z,2.63
2018-12-03T08:49:13.057Z,1.73
2018-12-03T08:51:18.034Z,1.60
2018-12-03T08:53:42.585Z,2.10
2018-12-03T08:55:47.769Z,1.57
2018-12-03T08:57:52.917Z,1.70
2018-12-03T08:59:57.997Z,1.90
2018-12-03T09:02:02.884Z,2.10
2018-12-03T09:04:14.550Z,1.70
2018-12-03T09:06:20.833Z,1.93
2018-12-03T09:08:25.635Z,1.80
2018-12-03T09:10:31.028Z,3.40
2018-12-03T09:12:35.851Z,1.60
2018-12-03T09:14:40.787Z,1.67
2018-12-03T09:16:45.775Z,2.43
2018-12-03T09:18:51.206Z,2.17
2018-12-03T09:20:56.004Z,2.20
2018-12-03T09:23:00.969Z,2.10
2018-12-03T09:25:09.586Z,1.70
2018-12-03T09:27:17.551Z,2.30
2018-12-03T09:29:22.507Z,2.33
2018-12-03T09:31:27.762Z,1.90
2018-12-03T09:33:32.760Z,2.50
2018-12-03T09:35:37.649Z,2.70
2018-12-03T09:37:42.506Z,2.00
2018-12-03T09:45:11.168Z,2.27
2018-12-03T09:47:33.824Z,2.20
2018-12-03T09:49:38.780Z,1.87
2018-12-03T09:51:43.596Z,3.10
2018-12-03T09:53:48.472Z,3.10
2018-12-03T09:55:53.201Z,2.60
2018-12-03T09:58:10.260Z,2.87
2018-12-03T10:00:18.957Z,2.23
2018-12-03T10:02:29.053Z,2.60
2018-12-03T10:04:40.177Z,2.57
2018-12-03T10:06:44.950Z,2.90
2018-12-03T10:08:49.598Z,2.17
2018-12-03T10:10:57.803Z,2.50
2018-12-03T10:13:07.720Z,1.73
2018-12-03T10:15:14.457Z,2.37
2018-12-03T10:17:19.333Z,3.07
2018-12-03T10:19:24.255Z,2.13
2018-12-03T10:21:29.255Z,1.70
2018-12-03T10:23:34.214Z,2.07
2018-12-03T10:25:39.280Z,1.83
2018-12-03T10:27:44.126Z,2.70
2018-12-03T10:29:49.842Z,2.00
2018-12-03T10:31:54.859Z,2.10
2018-12-03T10:33:59.750Z,2.40
2018-12-03T10:36:08.312Z,2.30
2018-12-03T10:38:18.102Z,1.97
2018-12-03T10:40:23.382Z,2.27
2018-12-03T10:42:28.831Z,2.00
2018-12-03T10:44:33.827Z,3.27
2018-12-03T10:46:38.744Z,2.07
2018-12-03T10:48:44.231Z,3.20
2018-12-03T10:50:49.047Z,2.60
2018-12-03T10:52:54.125Z,2.00
2018-12-03T10:55:01.556Z,2.70
2018-12-03T10:57:08.184Z,2.27
2018-12-03T10:59:12.945Z,1.80
2018-12-03T11:01:22.904Z,2.20
2018-12-03T11:03:32.644Z,1.93
2018-12-03T11:05:42.749Z,1.70
2018-12-03T11:07:47.749Z,2.67
2018-12-03T11:09:53.197Z,3.27
2018-12-03T11:11:57.941Z,2.90
2018-12-03T11:14:07.336Z,2.60
2018-12-03T11:16:24.927Z,1.80
2018-12-03T11:18:31.994Z,2.10
2018-12-03T11:20:36.998Z,2.47
2018-12-03T11:22:42.189Z,2.43
2018-12-03T11:24:48.227Z,2.70
2018-12-03T11:26:57.359Z,2.10
2018-12-03T11:29:03.510Z,2.27
2018-12-03T11:31:13.449Z,2.53
2018-12-03T11:33:23.887Z,2.60
2018-12-03T11:35:30.861Z,2.03
2018-12-03T11:37:35.882Z,2.03
2018-12-03T11:39:50.162Z,2.70
2018-12-03T11:42:00.379Z,2.00
2018-12-03T11:44:05.811Z,2.43
2018-12-03T11:46:10.651Z,1.30
2018-12-03T11:48:15.982Z,2.50
2018-12-03T11:50:21.432Z,2.63
2018-12-03T11:52:26.438Z,2.57
2018-12-03T11:54:32.480Z,3.17
2018-12-03T11:56:37.573Z,2.93
2018-12-03T11:58:42.502Z,2.03
2018-12-03T12:00:47.509Z,2.47
2018-12-03T12:02:52.549Z,1.80
2018-12-03T12:04:57.592Z,2.17
2018-12-03T12:07:02.597Z,1.93
2018-12-03T12:09:11.520Z,2.47
2018-12-03T12:11:16.277Z,2.90
2018-12-03T12:13:21.133Z,1.97
2018-12-03T12:15:26.211Z,1.33
2018-12-03T12:17:30.996Z,1.87
2018-12-03T12:19:35.740Z,2.40
2018-12-03T12:21:40.582Z,2.10
2018-12-03T12:23:45.430Z,2.30
2018-12-03T12:25:50.400Z,1.80
2018-12-03T12:27:59.118Z,1.47
2018-12-03T12:30:05.511Z,1.93
2018-12-03T12:32:11.480Z,3.00
2018-12-03T12:34:16.294Z,1.93
2018-12-03T12:36:21.089Z,3.00
2018-12-03T12:38:26.553Z,2.30
2018-12-03T12:40:32.302Z,2.50
2018-12-03T12:42:37.156Z,2.37
2018-12-03T12:44:42.004Z,3.27
2018-12-03T12:46:51.300Z,2.23
2018-12-03T12:48:56.083Z,2.00
2018-12-03T12:51:00.910Z,1.67
2018-12-03T12:53:06.313Z,2.90
2018-12-03T12:55:12.094Z,2.90
2018-12-03T12:57:16.921Z,2.10
2018-12-03T12:59:21.752Z,2.80
2018-12-03T13:01:26.504Z,3.10
2018-12-03T13:03:31.365Z,2.43
2018-12-03T13:05:37.417Z,2.53
2018-12-03T13:07:42.317Z,2.00
2018-12-03T13:09:47.272Z,1.90
2018-12-03T13:11:52.320Z,2.20
2018-12-03T13:13:57.745Z,2.13
2018-12-03T13:16:02.446Z,2.57
2018-12-03T13:18:09.371Z,1.20
2018-12-03T13:20:15.601Z,2.10
2018-12-03T13:22:20.500Z,2.30
2018-12-03T13:24:25.312Z,1.87
2018-12-03T13:26:31.850Z,2.10
2018-12-03T13:28:37.443Z,1.67
2018-12-03T13:30:42.398Z,2.50
2018-12-03T13:32:48.097Z,2.03
2018-12-03T13:34:53.670Z,1.50
2018-12-03T13:36:58.430Z,2.30
2018-12-03T13:39:03.290Z,1.77
2018-12-03T13:41:08.285Z,2.23
2018-12-03T13:43:13.156Z,1.70
2018-12-03T13:45:25.565Z,1.53
2018-12-03T13:47:30.471Z,2.63
2018-12-03T13:49:35.271Z,2.33
2018-12-03T13:51:40.823Z,1.87
2018-12-03T13:53:45.869Z,2.13
2018-12-03T13:55:50.568Z,1.60
2018-12-03T13:57:55.293Z,1.53
2018-12-03T14:00:00.128Z,2.03
2018-12-03T14:02:05.376Z,2.60
2018-12-03T14:04:14.514Z,2.10
2018-12-03T14:06:29.302Z,2.10
2018-12-03T14:10:49.529Z,2.10
2018-12-03T14:13:08.198Z,2.10
2018-12-03T14:15:49.089Z,2.30
2018-12-03T14:18:07.102Z,2.30
2018-12-03T14:20:12.104Z,1.97
2018-12-03T14:22:21.869Z,2.17
2018-12-03T14:24:26.691Z,1.97
2018-12-03T14:26:31.496Z,3.40
2018-12-03T14:28:36.266Z,3.00
2018-12-03T14:30:42.912Z,1.80
2018-12-03T14:32:47.993Z,2.50
2018-12-03T14:34:53.017Z,2.90
2018-12-03T14:36:57.962Z,1.90
2018-12-03T14:39:02.846Z,1.90
2018-12-03T14:41:08.428Z,2.23
2018-12-03T14:43:14.171Z,2.30
2018-12-03T14:45:18.991Z,1.93
2018-12-03T14:47:23.811Z,1.90
2018-12-03T14:49:28.608Z,2.90
2018-12-03T14:51:34.080Z,2.03
2018-12-03T14:53:39.473Z,2.93
2018-12-03T14:55:44.434Z,2.07
2018-12-03T14:57:49.298Z,2.43
2018-12-03T14:59:54.235Z,1.97
2018-12-03T15:01:59.110Z,2.23
2018-12-03T15:04:08.953Z,1.70
2018-12-03T15:06:13.840Z,1.60
2018-12-03T15:08:18.818Z,2.20
2018-12-03T15:10:23.644Z,2.70
2018-12-03T15:12:36.659Z,2.20
2018-12-03T15:14:42.131Z,2.10
2018-12-03T15:16:47.118Z,2.30
2018-12-03T15:18:52.371Z,2.07
2018-12-03T15:20:58.553Z,2.20
2018-12-03T15:23:03.957Z,1.97
2018-12-03T15:25:13.567Z,1.80
2018-12-03T15:27:18.353Z,2.03
2018-12-03T15:29:23.397Z,2.33
2018-12-03T15:31:28.784Z,2.40
2018-12-03T15:33:33.699Z,3.20
2018-12-03T15:35:39.157Z,2.43
2018-12-03T15:37:44.033Z,3.00
2018-12-03T15:39:49.328Z,1.63
2018-12-03T15:41:54.731Z,1.53
2018-12-03T15:44:00.255Z,2.47
2018-12-03T15:46:05.693Z,2.00
2018-12-03T15:48:10.698Z,2.23
2018-12-03T15:50:15.423Z,1.40
2018-12-03T15:52:20.354Z,2.47
2018-12-03T15:54:25.349Z,1.80
2018-12-03T15:56:30.283Z,2.53
2018-12-03T15:58:35.313Z,2.03
2018-12-03T16:00:40.165Z,2.10
2018-12-03T16:02:44.879Z,2.50
2018-12-03T16:04:49.812Z,1.53
2018-12-03T16:09:29.285Z,2.17
2018-12-03T16:11:36.807Z,1.60
2018-12-03T16:13:41.709Z,1.30
2018-12-03T16:15:46.622Z,1.30
2018-12-03T16:17:51.370Z,1.53
2018-12-03T16:19:57.082Z,1.00
2018-12-03T16:22:01.831Z,0.80
2018-12-03T16:24:06.652Z,0.87
2018-12-03T16:26:11.447Z,0.97
2018-12-03T16:28:16.365Z,0.93
2018-12-03T16:30:24.346Z,0.70
2018-12-03T16:32:29.579Z,1.10
2018-12-03T16:34:35.212Z,1.00
2018-12-03T16:36:40.396Z,0.73
2018-12-03T16:38:45.170Z,1.50
2018-12-03T16:40:50.053Z,1.27
2018-12-03T16:42:55.521Z,1.00
2018-12-03T16:45:00.385Z,0.93
2018-12-03T16:47:07.226Z,0.90
2018-12-03T16:49:12.626Z,1.03
2018-12-03T16:51:18.336Z,0.90
2018-12-03T16:53:24.098Z,1.20
2018-12-03T16:55:29.973Z,0.80
2018-12-03T16:57:36.636Z,1.10
2018-12-03T16:59:42.544Z,1.40
2018-12-03T17:01:48.317Z,1.20
2018-12-03T17:03:53.362Z,1.23
2018-12-03T17:05:58.467Z,2.03
2018-12-03T17:08:05.907Z,1.30
2018-12-03T17:10:20.270Z,2.17
2018-12-03T17:12:29.708Z,1.10
2018-12-03T17:14:39.981Z,1.27
2018-12-03T17:16:44.826Z,1.43
2018-12-03T17:18:49.985Z,1.60
2018-12-03T17:21:10.663Z,1.70
2018-12-03T17:23:45.052Z,2.20
2018-12-03T17:25:51.051Z,1.83
2018-12-03T17:27:57.045Z,1.70
2018-12-03T17:30:02.043Z,1.87
2018-12-03T17:32:07.043Z,1.70
2018-12-03T17:34:13.546Z,1.87
2018-12-03T17:36:19.295Z,2.00
2018-12-03T17:38:24.261Z,2.00
2018-12-03T17:40:30.114Z,1.60
2018-12-03T17:42:35.534Z,1.80
2018-12-03T17:44:41.179Z,1.67
2018-12-03T17:46:46.048Z,2.03
2018-12-03T17:48:50.774Z,2.40
2018-12-03T17:50:56.558Z,1.80
2018-12-03T17:53:01.495Z,1.77
2018-12-03T17:55:08.257Z,2.10
2018-12-03T17:57:13.751Z,1.60
2018-12-03T18:02:04.638Z,1.80
2018-12-03T18:04:13.498Z,1.83
2018-12-03T18:06:19.589Z,1.80
2018-12-03T18:08:24.941Z,2.13
2018-12-03T18:10:29.663Z,2.20
2018-12-03T18:12:34.724Z,1.93
2018-12-03T18:14:40.163Z,2.13
2018-12-03T18:16:44.866Z,2.00
2018-12-03T18:18:49.810Z,2.30
2018-12-03T18:21:03.167Z,2.00
2018-12-03T18:23:07.952Z,2.23
2018-12-03T18:25:12.899Z,2.30
2018-12-03T18:27:17.787Z,2.30
2018-12-03T18:29:22.551Z,2.00
2018-12-03T18:31:28.364Z,2.37
2018-12-03T18:33:33.510Z,2.37
2018-12-03T18:35:38.296Z,2.10
2018-12-03T18:37:43.817Z,2.30
2018-12-03T18:39:49.485Z,1.67
2018-12-03T18:41:55.032Z,2.13
2018-12-03T18:44:02.069Z,2.00
2018-12-03T18:46:06.829Z,2.70
2018-12-03T18:48:13.809Z,2.20
2018-12-03T18:50:26.825Z,2.50
2018-12-03T18:52:31.880Z,2.10
2018-12-03T18:54:36.637Z,1.53
2018-12-03T18:56:41.428Z,3.80
2018-12-03T18:58:54.237Z,2.40
2018-12-03T19:01:00.767Z,2.73
2018-12-03T19:03:05.688Z,3.00
2018-12-03T19:05:10.717Z,3.20
2018-12-03T19:07:15.981Z,1.77
2018-12-03T19:09:20.927Z,2.07
2018-12-03T19:11:26.893Z,2.30
2018-12-03T19:13:32.084Z,2.10
2018-12-03T19:15:37.089Z,2.30
2018-12-03T19:17:42.247Z,2.00
2018-12-03T19:19:47.574Z,2.10
2018-12-03T19:21:53.140Z,1.53
2018-12-03T19:24:03.928Z,2.00
2018-12-03T19:26:10.276Z,2.53
2018-12-03T19:28:18.884Z,1.57
2018-12-03T19:30:24.410Z,2.70
2018-12-03T19:32:33.928Z,1.63
2018-12-03T19:34:44.058Z,1.90
2018-12-03T19:36:48.921Z,1.77
2018-12-03T19:38:54.910Z,1.87
2018-12-03T19:41:03.095Z,1.67
2018-12-03T19:43:08.202Z,2.70
2018-12-03T19:45:14.378Z,1.90
2018-12-03T19:47:20.422Z,2.73
2018-12-03T19:49:27.463Z,2.27
2018-12-03T19:51:33.244Z,2.03
2018-12-03T19:53:38.995Z,2.20
2018-12-03T19:55:45.318Z,2.77
2018-12-03T19:58:01.557Z,1.60
2018-12-03T20:00:11.642Z,2.93
2018-12-03T20:02:18.640Z,3.30
2018-12-03T20:04:36.732Z,2.50
2018-12-03T20:06:42.260Z,2.47
2018-12-03T20:08:47.401Z,3.10
2018-12-03T20:11:05.701Z,1.40
2018-12-03T20:13:11.996Z,2.70
2018-12-03T20:15:19.557Z,2.10
2018-12-03T20:17:33.709Z,3.40
2018-12-03T20:19:43.045Z,2.53
2018-12-03T20:21:57.123Z,2.60
2018-12-03T20:26:48.004Z,2.87
2018-12-03T20:31:17.509Z,2.50
2018-12-03T20:33:41.769Z,2.07
2018-12-03T20:38:01.030Z,2.50
2018-12-03T20:40:21.526Z,2.67
2018-12-03T20:42:33.150Z,2.87
2018-12-03T20:44:57.175Z,2.40
2018-12-03T20:47:38.615Z,3.33
2018-12-03T20:51:08.990Z,2.70
2018-12-03T20:53:19.021Z,2.40
2018-12-03T20:55:34.025Z,2.23
2018-12-03T20:57:40.927Z,3.00
2018-12-03T20:59:51.542Z,1.80
2018-12-03T21:01:59.912Z,3.27
2018-12-03T21:04:07.177Z,2.70
2018-12-03T21:06:12.410Z,2.93
2018-12-03T21:08:19.273Z,2.33
2018-12-03T21:14:36.448Z,3.40
2018-12-03T21:16:45.110Z,2.57
2018-12-03T21:21:20.947Z,2.33
2018-12-03T21:23:26.908Z,2.70
2018-12-03T21:25:34.271Z,3.00
2018-12-03T21:27:46.972Z,3.70
2018-12-03T21:29:54.818Z,3.10
2018-12-03T21:32:01.349Z,2.30
2018-12-03T21:34:08.016Z,1.90
2018-12-03T21:36:14.123Z,2.73
2018-12-03T21:38:22.251Z,2.80
2018-12-03T21:40:37.910Z,3.00
2018-12-03T21:43:04.635Z,3.33
2018-12-03T21:45:28.933Z,2.73
2018-12-03T21:47:40.515Z,3.30
2018-12-03T21:49:56.330Z,3.67
2018-12-03T21:52:03.012Z,1.77
2018-12-03T21:54:08.684Z,2.80
2018-12-03T21:56:14.521Z,2.73
2018-12-03T21:58:22.302Z,5.40
2018-12-03T22:00:30.832Z,3.07
2018-12-03T22:02:37.077Z,3.47
2018-12-03T22:04:44.601Z,2.53
2018-12-03T22:06:51.288Z,3.60
2018-12-03T22:08:57.137Z,3.50
2018-12-03T22:11:02.717Z,3.07
2018-12-03T22:13:07.501Z,2.93
2018-12-03T22:15:13.621Z,3.23
2018-12-03T22:17:18.761Z,3.63
2018-12-03T22:19:30.865Z,3.57
2018-12-03T22:21:36.593Z,3.13
2018-12-03T22:23:43.080Z,3.97
2018-12-03T22:25:48.206Z,2.80
2018-12-03T22:27:53.819Z,4.67
2018-12-03T22:32:20.533Z,3.03
2018-12-03T22:34:27.997Z,3.10
2018-12-03T22:36:32.937Z,4.30
2018-12-03T22:38:38.376Z,3.70
2018-12-03T22:40:44.606Z,3.43
2018-12-03T22:42:49.625Z,3.50
2018-12-03T22:44:54.454Z,3.40
2018-12-03T22:46:59.545Z,4.10
2018-12-03T22:49:05.374Z,3.00
2018-12-03T22:51:10.294Z,3.17
2018-12-03T22:53:15.124Z,4.23
2018-12-03T22:55:20.572Z,4.93
2018-12-03T22:57:26.222Z,3.67
2018-12-03T22:59:31.936Z,4.93
2018-12-03T23:01:37.456Z,4.00
2018-12-03T23:03:42.741Z,4.23
2018-12-03T23:05:47.786Z,3.63
2018-12-03T23:07:53.348Z,3.73
2018-12-03T23:09:58.611Z,2.97
2018-12-03T23:12:03.559Z,3.17
2018-12-03T23:16:25.665Z,4.20
2018-12-03T23:18:30.580Z,3.47
2018-12-03T23:22:56.412Z,3.57
2018-12-03T23:25:01.524Z,4.00
2018-12-03T23:27:06.347Z,3.67
2018-12-03T23:29:11.825Z,4.83
2018-12-03T23:31:17.441Z,3.87
2018-12-03T23:33:22.270Z,3.40
2018-12-03T23:35:28.042Z,3.60
2018-12-03T23:37:33.814Z,3.27
2018-12-03T23:39:38.635Z,3.17
2018-12-03T23:41:44.980Z,3.23
2018-12-03T23:43:49.931Z,1.20
2018-12-03T23:45:54.983Z,0.73
2018-12-03T23:47:59.838Z,0.80
2018-12-03T23:50:04.821Z,0.80
2018-12-03T23:52:09.740Z,1.00
2018-12-03T23:54:15.283Z,0.63
2018-12-03T23:56:21.013Z,0.60
2018-12-03T23:58:25.961Z,0.50
